GMTN  Saniat Rmel Airport

Add Bookmark

Morocco

Status IATA
Operational TTU
Latitude Longitude
35° 35' 39" N 5° 19' 12" W
35.594299 -5.320020
Local (DST + 1) UTC (GMT 0)
Oct 2, 2014 01:24 Oct 2, 2014 12:24
Sunrise-Sunset Local UTC
Begin Civil Twilight 06:50 05:50
Sunrise 07:16 06:16
Sunset 07:04 18:04
End Civil Twilight 07:30 18:30

Current Weather

METAR Observed MVFR
GMTN 021200Z 08012KT 6000 BKN010 SCT020TCU 24/20 Q1020 NOSIG Thu, Oct 2, 2014 @ 12:00 UTC
(24 Minutes ago)
Marginal Visual Flight Rules
Wind Visibility Clouds Conditions
080° at 12 knots (22 kph) 6000 meters
  • Broken at 1,000' AGL
  • Scattered at 2,000' AGL
  • No significant weather
Temperatures Readings Precipitation
Current Temp 24°C (75°F)
Dewpoint 20°C (68°F)
Humidity 78%
Altimeter 30.12"Hg
Sea Level Pressure 1020mb
Field Elevation 32.81'
None Recorded

Additional weather within a 92.6km radius of GMTN

Map ICAO Location
GMTT 55.9km W (285°)
LXGB 61.9km N (360°)

24 Hour Weather History

Loading
-

24 Hour Weather Graphs

Loading
-

CheckWX.com is intended as a tool to help pilots better visualize weather data. It is not intended as a substitute for an official weather briefing obtained from a Flight Service Station. CheckWX.com does not meet the FAA requirements for an official pre-flight weather briefing. Therefore, it's important that pilots still call and obtain an official FSS pre-flight weather briefing.